createdAt,value
2018-01-05T00:01:20.082Z,98376
2018-01-05T00:03:48.906Z,98395
2018-01-05T00:06:17.007Z,98387
2018-01-05T00:08:45.081Z,98389
2018-01-05T00:11:13.134Z,98399
2018-01-05T00:13:41.983Z,98418
2018-01-05T00:16:10.246Z,98413
2018-01-05T00:18:38.624Z,98413
2018-01-05T00:21:06.699Z,98404
2018-01-05T00:23:34.768Z,98415
2018-01-05T00:26:02.839Z,98416
2018-01-05T00:28:31.114Z,98412
2018-01-05T00:30:59.956Z,98416
2018-01-05T00:33:28.026Z,98410
2018-01-05T00:35:56.204Z,98423
2018-01-05T00:38:24.275Z,98417
2018-01-05T00:40:52.339Z,98412
2018-01-05T00:43:20.407Z,98419
2018-01-05T00:45:48.483Z,98423
2018-01-05T00:48:17.138Z,98444
2018-01-05T00:50:45.208Z,98440
2018-01-05T00:53:13.325Z,98436
2018-01-05T00:55:41.378Z,98459
2018-01-05T00:58:09.559Z,98451
2018-01-05T01:00:37.623Z,98448
2018-01-05T01:03:05.721Z,98452
2018-01-05T01:05:35.130Z,98467
2018-01-05T01:08:03.977Z,98470
2018-01-05T01:10:32.845Z,98477
2018-01-05T01:13:00.912Z,98478
2018-01-05T01:15:28.983Z,98482
2018-01-05T01:17:57.099Z,98475
2018-01-05T01:20:25.715Z,98486
2018-01-05T01:22:54.558Z,98494
2018-01-05T01:25:22.624Z,98498
2018-01-05T01:27:50.695Z,98512
2018-01-05T01:30:18.760Z,98496
2018-01-05T01:32:46.819Z,98500
2018-01-05T01:35:14.887Z,98510
2018-01-05T01:37:42.942Z,98517
2018-01-05T01:40:11.015Z,98519
2018-01-05T01:42:39.168Z,98511
2018-01-05T01:45:07.227Z,98502
2018-01-05T01:47:36.056Z,98506
2018-01-05T01:50:04.136Z,98516
2018-01-05T01:52:32.200Z,98527
2018-01-05T01:55:00.297Z,98518
2018-01-05T01:57:28.466Z,98516
2018-01-05T01:59:56.540Z,98522
2018-01-05T02:02:24.607Z,98542
2018-01-05T02:04:52.688Z,98526
2018-01-05T02:07:20.759Z,98537
2018-01-05T02:09:48.887Z,98527
2018-01-05T02:12:17.675Z,98538
2018-01-05T02:14:45.778Z,98528
2018-01-05T02:17:13.842Z,98542
2018-01-05T02:19:42.131Z,98543
2018-01-05T02:22:10.199Z,98546
2018-01-05T02:24:39.181Z,98553
2018-01-05T02:27:07.259Z,98550
2018-01-05T02:29:35.331Z,98564
2018-01-05T02:32:03.406Z,98553
2018-01-05T02:34:31.988Z,98570
2018-01-05T02:37:00.056Z,98554
2018-01-05T02:39:28.109Z,98575
2018-01-05T02:41:56.879Z,98562
2018-01-05T02:44:24.976Z,98574
2018-01-05T02:46:53.027Z,98557
2018-01-05T02:49:21.086Z,98564
2018-01-05T02:51:49.155Z,98568
2018-01-05T02:54:17.267Z,98566
2018-01-05T02:56:45.375Z,98563
2018-01-05T02:59:13.635Z,98571
2018-01-05T03:01:42.471Z,98593
2018-01-05T03:04:10.549Z,98587
2018-01-05T03:06:38.647Z,98614
2018-01-05T03:09:06.719Z,98583
2018-01-05T03:11:34.883Z,98586
2018-01-05T03:14:02.952Z,98586
2018-01-05T03:16:31.027Z,98605
2018-01-05T03:18:59.096Z,98593
2018-01-05T03:21:27.159Z,98631
2018-01-05T03:23:55.228Z,98629
2018-01-05T03:26:24.114Z,98626
2018-01-05T03:28:52.187Z,98627
2018-01-05T03:31:20.248Z,98632
2018-01-05T03:33:48.324Z,98638
2018-01-05T03:36:16.409Z,98630
2018-01-05T03:38:44.587Z,98669
2018-01-05T03:41:12.641Z,98684
2018-01-05T03:43:40.723Z,98665
2018-01-05T03:46:08.793Z,98685
2018-01-05T03:48:37.065Z,98675
2018-01-05T03:51:05.146Z,98672
2018-01-05T03:53:33.211Z,98677
2018-01-05T03:56:01.284Z,98688
2018-01-05T03:58:29.455Z,98679
2018-01-05T04:00:57.525Z,98695
2018-01-05T04:03:25.702Z,98697
2018-01-05T04:05:53.772Z,98702
2018-01-05T04:08:21.821Z,98741
2018-01-05T04:10:49.894Z,98715
2018-01-05T04:13:17.945Z,98718
2018-01-05T04:15:46.565Z,98722
2018-01-05T04:18:14.622Z,98732
2018-01-05T04:20:42.707Z,98729
2018-01-05T04:23:11.339Z,98717
2018-01-05T04:25:39.417Z,98728
2018-01-05T04:28:07.484Z,98716
2018-01-05T04:30:35.875Z,98711
2018-01-05T04:33:04.098Z,98708
2018-01-05T04:35:32.935Z,98715
2018-01-05T04:38:01.612Z,98711
2018-01-05T04:40:29.688Z,98714
2018-01-05T04:42:57.797Z,98708
2018-01-05T04:45:25.957Z,98706
2018-01-05T04:47:54.030Z,98709
2018-01-05T04:50:22.089Z,98706
2018-01-05T04:52:50.407Z,98704
2018-01-05T04:55:19.247Z,98707
2018-01-05T04:57:47.316Z,98700
2018-01-05T05:00:15.370Z,98703
2018-01-05T05:02:43.925Z,98717
2018-01-05T05:05:12.768Z,98717
2018-01-05T05:07:40.841Z,98719
2018-01-05T05:10:09.261Z,98723
2018-01-05T05:12:38.087Z,98717
2018-01-05T05:15:06.152Z,98740
2018-01-05T05:17:34.615Z,98725
2018-01-05T05:20:02.685Z,98730
2018-01-05T05:22:30.859Z,98721
2018-01-05T05:24:58.911Z,98748
2018-01-05T05:27:27.776Z,98735
2018-01-05T05:29:55.843Z,98745
2018-01-05T05:32:24.020Z,98740
2018-01-05T05:34:52.087Z,98754
2018-01-05T05:37:20.148Z,98757
2018-01-05T05:39:49.881Z,98755
2018-01-05T05:42:18.043Z,98748
2018-01-05T05:44:46.209Z,98766
2018-01-05T05:47:14.270Z,98774
2018-01-05T05:49:42.342Z,98766
2018-01-05T05:52:10.777Z,98775
2018-01-05T05:54:38.915Z,98773
2018-01-05T05:57:06.979Z,98781
2018-01-05T05:59:35.071Z,98788
2018-01-05T06:02:04.530Z,98774
2018-01-05T06:04:33.263Z,98781
2018-01-05T06:07:02.124Z,98786
2018-01-05T06:09:30.207Z,98794
2018-01-05T06:11:59.042Z,98787
2018-01-05T06:14:27.132Z,98786
2018-01-05T06:16:55.207Z,98806
2018-01-05T06:19:23.276Z,98810
2018-01-05T06:21:51.351Z,98814
2018-01-05T06:24:19.431Z,98817
2018-01-05T06:26:47.503Z,98824
2018-01-05T06:29:15.896Z,98815
2018-01-05T06:31:43.951Z,98818
2018-01-05T06:34:12.014Z,98809
2018-01-05T06:36:40.161Z,98818
2018-01-05T06:39:08.226Z,98821
2018-01-05T06:41:36.381Z,98809
2018-01-05T06:44:04.456Z,98824
2018-01-05T06:46:32.584Z,98828
2018-01-05T06:49:00.753Z,98844
2018-01-05T06:51:28.827Z,98839
2018-01-05T06:53:56.899Z,98838
2018-01-05T06:56:25.063Z,98837
2018-01-05T06:58:53.117Z,98842
2018-01-05T07:01:21.209Z,98837
2018-01-05T07:03:49.284Z,98837
2018-01-05T07:06:17.516Z,98856
2018-01-05T07:08:45.986Z,98856
2018-01-05T07:11:14.096Z,98859
2018-01-05T07:13:42.168Z,98842
2018-01-05T07:16:10.258Z,98855
2018-01-05T07:18:38.328Z,98849
2018-01-05T07:21:06.486Z,98849
2018-01-05T07:23:35.375Z,98853
2018-01-05T07:26:03.450Z,98847
2018-01-05T07:28:31.514Z,98855
2018-01-05T07:30:59.712Z,98880
2018-01-05T07:33:28.544Z,98853
2018-01-05T07:35:56.618Z,98853
2018-01-05T07:38:24.681Z,98864
2018-01-05T07:40:52.758Z,98854
2018-01-05T07:43:20.839Z,98860
2018-01-05T07:45:48.923Z,98863
2018-01-05T07:48:16.990Z,98869
2018-01-05T07:50:45.038Z,98854
2018-01-05T07:53:13.150Z,98857
2018-01-05T07:55:41.220Z,98864
2018-01-05T07:58:09.273Z,98863
2018-01-05T08:00:37.653Z,98869
2018-01-05T08:03:06.853Z,98868
2018-01-05T08:05:34.926Z,98867
2018-01-05T08:08:03.006Z,98868
2018-01-05T08:10:31.087Z,98885
2018-01-05T08:12:59.727Z,98869
2018-01-05T08:15:27.792Z,98867
2018-01-05T08:17:55.963Z,98875
2018-01-05T08:20:24.034Z,98863
2018-01-05T08:22:52.105Z,98863
2018-01-05T08:25:20.762Z,98858
2018-01-05T08:27:49.603Z,98868
2018-01-05T08:30:17.687Z,98862
2018-01-05T08:32:45.742Z,98863
2018-01-05T08:35:13.808Z,98867
2018-01-05T08:37:41.879Z,98866
2018-01-05T08:40:09.942Z,98857
2018-01-05T08:42:38.017Z,98863
2018-01-05T08:45:06.076Z,98860
2018-01-05T08:47:34.139Z,98858
2018-01-05T08:50:02.213Z,98856
2018-01-05T08:52:30.278Z,98862
2018-01-05T08:54:58.596Z,98862
2018-01-05T08:57:26.721Z,98860
2018-01-05T08:59:54.753Z,98858
2018-01-05T09:02:22.839Z,98867
2018-01-05T09:04:52.358Z,98858
2018-01-05T09:07:20.418Z,98870
2018-01-05T09:09:49.273Z,98873
2018-01-05T09:12:17.335Z,98869
2018-01-05T09:17:42.901Z,98874
2018-01-05T09:20:11.747Z,98878
2018-01-05T09:22:40.249Z,98872
2018-01-05T09:25:08.402Z,98882
2018-01-05T09:27:36.467Z,98872
2018-01-05T09:30:04.573Z,98872
2018-01-05T09:32:32.630Z,98869
2018-01-05T09:35:00.694Z,98871
2018-01-05T09:37:28.750Z,98867
2018-01-05T09:39:56.823Z,98865
2018-01-05T09:42:24.878Z,98867
2018-01-05T09:44:52.947Z,98853
2018-01-05T09:47:21.042Z,98852
2018-01-05T09:49:49.105Z,98851
2018-01-05T09:52:17.162Z,98861
2018-01-05T09:54:45.262Z,98859
2018-01-05T09:57:13.342Z,98869
2018-01-05T09:59:41.415Z,98859
2018-01-05T10:02:10.250Z,98887
2018-01-05T10:04:38.326Z,98853
2018-01-05T10:07:06.418Z,98851
2018-01-05T10:09:34.480Z,98853
2018-01-05T10:12:02.547Z,98856
2018-01-05T10:14:30.602Z,98869
2018-01-05T10:16:59.119Z,98863
2018-01-05T10:19:27.192Z,98857
2018-01-05T10:21:55.274Z,98851
2018-01-05T10:24:23.833Z,98861
2018-01-05T10:26:51.902Z,98864
2018-01-05T10:29:19.974Z,98858
2018-01-05T10:31:48.047Z,98867
2018-01-05T10:34:16.107Z,98863
2018-01-05T10:36:44.182Z,98866
2018-01-05T10:39:12.279Z,98863
2018-01-05T10:41:40.338Z,98877
2018-01-05T10:44:09.090Z,98869
2018-01-05T10:46:37.160Z,98866
2018-01-05T10:49:05.257Z,98876
2018-01-05T10:51:34.015Z,98874
2018-01-05T10:54:02.089Z,98879
2018-01-05T10:56:30.158Z,98860
2018-01-05T10:58:58.225Z,98867
2018-01-05T11:01:26.291Z,98855
2018-01-05T11:03:55.018Z,98863
2018-01-05T11:06:23.086Z,98862
2018-01-05T11:08:51.153Z,98877
2018-01-05T11:11:19.230Z,98873
2018-01-05T11:13:47.412Z,98875
2018-01-05T11:16:15.577Z,98870
2018-01-05T11:18:43.814Z,98881
2018-01-05T11:21:11.914Z,98885
2018-01-05T11:23:39.986Z,98889
2018-01-05T11:26:08.063Z,98870
2018-01-05T11:28:36.137Z,98885
2018-01-05T11:31:04.547Z,98876
2018-01-05T11:33:33.438Z,98925
2018-01-05T11:36:02.287Z,98876
2018-01-05T11:38:30.946Z,98881
2018-01-05T11:40:59.026Z,98900
2018-01-05T11:43:27.085Z,98896
2018-01-05T11:45:55.150Z,98888
2018-01-05T11:48:23.230Z,98886
2018-01-05T11:50:51.662Z,98886
2018-01-05T11:53:20.495Z,98897
2018-01-05T11:55:48.590Z,98884
2018-01-05T11:58:16.665Z,98887
2018-01-05T12:00:44.738Z,98899
2018-01-05T12:03:12.807Z,98893
2018-01-05T12:05:40.891Z,98900
2018-01-05T12:08:08.958Z,98897
2018-01-05T12:10:37.041Z,98911
2018-01-05T12:13:05.185Z,98917
2018-01-05T12:15:33.250Z,98925
2018-01-05T12:18:01.325Z,98933
2018-01-05T12:20:29.420Z,98940
2018-01-05T12:22:58.261Z,98938
2018-01-05T12:25:26.335Z,98962
2018-01-05T12:27:54.437Z,98960
2018-01-05T12:30:22.699Z,98971
2018-01-05T12:32:50.775Z,98969
2018-01-05T12:35:18.843Z,98978
2018-01-05T12:37:46.913Z,98989
2018-01-05T12:40:14.994Z,98986
2018-01-05T12:42:43.320Z,98997
2018-01-05T12:45:11.538Z,99006
2018-01-05T12:47:39.593Z,99011
2018-01-05T12:50:07.718Z,99014
2018-01-05T12:52:35.738Z,99011
2018-01-05T12:55:03.810Z,99025
2018-01-05T12:57:31.920Z,99017
2018-01-05T13:00:00.084Z,99029
2018-01-05T13:02:28.150Z,99028
2018-01-05T13:04:56.299Z,99031
2018-01-05T13:07:24.371Z,99026
2018-01-05T13:09:52.438Z,99044
2018-01-05T13:12:20.523Z,99060
2018-01-05T13:14:48.617Z,99057
2018-01-05T13:17:16.680Z,99057
2018-01-05T13:19:44.759Z,99070
2018-01-05T13:22:13.614Z,99080
2018-01-05T13:24:42.162Z,99086
2018-01-05T13:27:10.235Z,99084
2018-01-05T13:29:38.871Z,99085
2018-01-05T13:32:07.658Z,99084
2018-01-05T13:34:36.706Z,99083
2018-01-05T13:37:04.779Z,99091
2018-01-05T13:39:32.842Z,99099
2018-01-05T13:42:00.908Z,99102
2018-01-05T13:44:28.973Z,99103
2018-01-05T13:46:57.034Z,99111
2018-01-05T13:49:25.095Z,99108
2018-01-05T13:51:53.941Z,99110
2018-01-05T13:54:22.006Z,99109
2018-01-05T13:56:50.074Z,99104
2018-01-05T13:59:18.132Z,99115
2018-01-05T14:01:46.221Z,99119
2018-01-05T14:04:14.967Z,99116
2018-01-05T14:06:43.514Z,99131
2018-01-05T14:09:11.721Z,99140
2018-01-05T14:11:39.731Z,99151
2018-01-05T14:14:07.794Z,99154
2018-01-05T14:16:35.902Z,99156
2018-01-05T14:19:03.914Z,99164
2018-01-05T14:21:31.984Z,99156
2018-01-05T14:24:00.050Z,99154
2018-01-05T14:26:28.106Z,99160
2018-01-05T14:28:56.174Z,99163
2018-01-05T14:31:25.270Z,99148
2018-01-05T14:33:53.326Z,99165
2018-01-05T14:36:22.161Z,99170
2018-01-05T14:38:50.250Z,99182
2018-01-05T14:41:18.340Z,99165
2018-01-05T14:43:46.406Z,99176
2018-01-05T14:46:14.466Z,99175
2018-01-05T14:48:42.529Z,99181
2018-01-05T14:51:11.031Z,99176
2018-01-05T14:53:39.082Z,99183
2018-01-05T14:56:07.164Z,99198
2018-01-05T14:58:35.214Z,99189
2018-01-05T15:01:03.282Z,99189
2018-01-05T15:03:31.343Z,99210
2018-01-05T15:05:59.403Z,99205
2018-01-05T15:08:27.461Z,99214
2018-01-05T15:10:55.591Z,99221
2018-01-05T15:13:23.654Z,99221
2018-01-05T15:15:51.726Z,99222
2018-01-05T15:18:19.789Z,99216
2018-01-05T15:20:47.846Z,99218
2018-01-05T15:23:16.074Z,99221
2018-01-05T15:25:44.908Z,99227
2018-01-05T15:28:12.996Z,99236
2018-01-05T15:30:41.070Z,99236
2018-01-05T15:33:09.130Z,99240
2018-01-05T15:35:37.193Z,99243
2018-01-05T15:38:05.255Z,99238
2018-01-05T15:40:33.325Z,99241
2018-01-05T15:43:01.383Z,99237
2018-01-05T15:45:29.798Z,99252
2018-01-05T15:47:57.961Z,99248
2018-01-05T15:50:26.289Z,99254
2018-01-05T15:52:55.111Z,99258
2018-01-05T15:55:23.273Z,99259
2018-01-05T15:57:51.370Z,99255
2018-01-05T16:00:19.782Z,99260
2018-01-05T16:02:48.610Z,99266
2018-01-05T16:05:16.718Z,99267
2018-01-05T16:07:44.782Z,99275
2018-01-05T16:10:12.839Z,99276
2018-01-05T16:12:40.926Z,99274
2018-01-05T16:15:10.330Z,99281
2018-01-05T16:17:38.543Z,99290
2018-01-05T16:20:07.392Z,99294
2018-01-05T16:22:35.480Z,99300
2018-01-05T16:25:04.352Z,99312
2018-01-05T16:27:32.429Z,99308
2018-01-05T16:30:00.498Z,99294
2018-01-05T16:32:28.578Z,99308
2018-01-05T16:34:56.996Z,99328
2018-01-05T16:37:25.081Z,99328
2018-01-05T16:39:53.130Z,99327
2018-01-05T16:42:21.185Z,99332
2018-01-05T16:44:50.026Z,99324
2018-01-05T16:47:18.084Z,99334
2018-01-05T16:49:46.152Z,99349
2018-01-05T16:52:14.214Z,99334
2018-01-05T16:54:42.283Z,99340
2018-01-05T16:57:10.351Z,99345
2018-01-05T16:59:39.288Z,99350
2018-01-05T17:02:07.367Z,99345
2018-01-05T17:04:35.447Z,99347
2018-01-05T17:07:03.503Z,99348
2018-01-05T17:09:32.010Z,99351
2018-01-05T17:12:00.840Z,99360
2018-01-05T17:14:28.947Z,99369
2018-01-05T17:16:57.015Z,99359
2018-01-05T17:19:25.074Z,99364
2018-01-05T17:21:53.134Z,99366
2018-01-05T17:24:21.218Z,99367
2018-01-05T17:26:49.971Z,99372
2018-01-05T17:29:18.040Z,99369
2018-01-05T17:31:46.111Z,99387
2018-01-05T17:34:14.166Z,99373
2018-01-05T17:36:42.222Z,99381
2018-01-05T17:39:10.285Z,99377
2018-01-05T17:41:39.121Z,99380
2018-01-05T17:44:07.215Z,99391
2018-01-05T17:46:35.290Z,99390
2018-01-05T17:49:03.358Z,99392
2018-01-05T17:51:31.711Z,99390
2018-01-05T17:53:59.775Z,99414
2018-01-05T17:56:27.856Z,99393
2018-01-05T17:58:56.018Z,99404
2018-01-05T18:01:24.094Z,99415
2018-01-05T18:03:52.153Z,99411
2018-01-05T18:06:20.223Z,99406
2018-01-05T18:08:48.294Z,99402
2018-01-05T18:11:16.563Z,99407
2018-01-05T18:13:44.634Z,99410
2018-01-05T18:16:12.707Z,99400
2018-01-05T18:18:40.762Z,99421
2018-01-05T18:21:08.841Z,99435
2018-01-05T18:23:36.902Z,99436
2018-01-05T18:26:04.990Z,99427
2018-01-05T18:28:33.062Z,99422
2018-01-05T18:31:01.135Z,99417
2018-01-05T18:33:29.218Z,99429
2018-01-05T18:35:57.298Z,99439
2018-01-05T18:38:25.391Z,99433
2018-01-05T18:40:53.764Z,99432
2018-01-05T18:43:21.822Z,99438
2018-01-05T18:45:49.881Z,99450
2018-01-05T18:48:18.010Z,99450
2018-01-05T18:50:46.903Z,99441
2018-01-05T18:53:14.969Z,99443
2018-01-05T18:55:43.719Z,99451
2018-01-05T18:58:11.799Z,99460
2018-01-05T19:00:39.859Z,99455
2018-01-05T19:03:08.276Z,99460
2018-01-05T19:05:37.536Z,99468
2018-01-05T19:08:05.694Z,99469
2018-01-05T19:10:33.762Z,99472
2018-01-05T19:13:01.840Z,99476
2018-01-05T19:15:29.902Z,99475
2018-01-05T19:17:57.978Z,99477
2018-01-05T19:20:26.050Z,99475
2018-01-05T19:22:54.713Z,99461
2018-01-05T19:25:22.794Z,99467
2018-01-05T19:27:50.867Z,99473
2018-01-05T19:30:19.056Z,99477
2018-01-05T19:32:47.127Z,99474
2018-01-05T19:35:15.204Z,99478
2018-01-05T19:37:43.275Z,99482
2018-01-05T19:40:11.694Z,99494
2018-01-05T19:42:39.798Z,99500
2018-01-05T19:45:08.662Z,99505
2018-01-05T19:47:36.718Z,99503
2018-01-05T19:50:05.759Z,99507
2018-01-05T19:52:33.834Z,99504
2018-01-05T19:55:02.011Z,99488
2018-01-05T19:57:30.111Z,99500
2018-01-05T19:59:58.171Z,99505
2018-01-05T20:02:26.246Z,99515
2018-01-05T20:04:55.084Z,99509
2018-01-05T20:07:23.162Z,99513
2018-01-05T20:09:51.458Z,99515
2018-01-05T20:12:19.530Z,99509
2018-01-05T20:14:47.604Z,99502
2018-01-05T20:17:15.770Z,99508
2018-01-05T20:19:43.838Z,99514
2018-01-05T20:22:11.920Z,99502
2018-01-05T20:24:39.990Z,99503
2018-01-05T20:27:08.078Z,99502
2018-01-05T20:29:36.913Z,99503
2018-01-05T20:32:05.017Z,99501
2018-01-05T20:34:33.081Z,99499
2018-01-05T20:37:01.183Z,99500
2018-01-05T20:39:29.329Z,99506
2018-01-05T20:41:57.440Z,99507
2018-01-05T20:44:26.268Z,99505
2018-01-05T20:46:54.327Z,99508
2018-01-05T20:49:22.668Z,99508
2018-01-05T20:51:51.495Z,99507
2018-01-05T20:54:19.550Z,99506
2018-01-05T20:56:48.206Z,99501
2018-01-05T20:59:17.098Z,99512
2018-01-05T21:01:45.976Z,99516
2018-01-05T21:04:14.818Z,99515
2018-01-05T21:06:42.895Z,99519
2018-01-05T21:09:10.958Z,99520
2018-01-05T21:11:39.060Z,99516
2018-01-05T21:14:07.817Z,99528
2018-01-05T21:16:35.883Z,99527
2018-01-05T21:19:03.987Z,99536
2018-01-05T21:21:32.107Z,99535
2018-01-05T21:24:00.970Z,99547
2018-01-05T21:26:29.802Z,99546
2018-01-05T21:28:57.915Z,99541
2018-01-05T21:31:25.994Z,99552
2018-01-05T21:33:54.074Z,99551
2018-01-05T21:36:23.016Z,99561
2018-01-05T21:38:51.114Z,99547
2018-01-05T21:41:19.287Z,99545
2018-01-05T21:43:47.342Z,99549
2018-01-05T21:46:15.410Z,99551
2018-01-05T21:48:43.935Z,99553
2018-01-05T21:51:11.993Z,99542
2018-01-05T21:53:41.706Z,99543
2018-01-05T21:56:10.545Z,99541
2018-01-05T21:58:38.611Z,99553
2018-01-05T22:01:06.684Z,99563
2018-01-05T22:03:34.770Z,99562
2018-01-05T22:06:02.823Z,99571
2018-01-05T22:08:30.883Z,99566
2018-01-05T22:10:59.001Z,99563
2018-01-05T22:13:27.062Z,99570
2018-01-05T22:15:55.134Z,99575
2018-01-05T22:18:23.204Z,99577
2018-01-05T22:20:51.271Z,99576
2018-01-05T22:23:19.331Z,99572
2018-01-05T22:25:47.386Z,99576
2018-01-05T22:28:15.489Z,99569
2018-01-05T22:30:43.604Z,99577
2018-01-05T22:33:12.445Z,99580
2018-01-05T22:35:40.505Z,99592
2018-01-05T22:38:08.586Z,99586
2018-01-05T22:40:36.980Z,99594
2018-01-05T22:43:05.035Z,99605
2018-01-05T22:45:33.111Z,99607
2018-01-05T22:48:01.183Z,99606
2018-01-05T22:50:29.238Z,99606
2018-01-05T22:52:57.306Z,99613
2018-01-05T22:55:25.377Z,99602
2018-01-05T22:57:53.470Z,99609
2018-01-05T23:00:22.222Z,99606
2018-01-05T23:02:50.283Z,99605
2018-01-05T23:05:18.354Z,99608
2018-01-05T23:07:46.414Z,99609
2018-01-05T23:10:14.526Z,99600
2018-01-05T23:12:42.595Z,99604
2018-01-05T23:15:10.662Z,99593
2018-01-05T23:17:38.754Z,99603
2018-01-05T23:20:06.821Z,99600
2018-01-05T23:22:34.888Z,99594
2018-01-05T23:25:02.955Z,99604
2018-01-05T23:27:31.018Z,99610
2018-01-05T23:29:59.085Z,99601
2018-01-05T23:32:27.170Z,99606
2018-01-05T23:34:55.533Z,99600
2018-01-05T23:37:23.590Z,99603
2018-01-05T23:39:51.692Z,99605
2018-01-05T23:42:19.915Z,99589
2018-01-05T23:44:47.972Z,99601
2018-01-05T23:47:16.043Z,99590
2018-01-05T23:49:44.106Z,99596
2018-01-05T23:52:13.022Z,99604
2018-01-05T23:54:41.082Z,99600
2018-01-05T23:57:09.147Z,99601
2018-01-05T23:59:37.214Z,99602
